Time;durP1;ratioP1;P1;durP2;ratioP2;P2;SDS_P1;SDS_P2;PMS_P1;PMS_P2;Temp;Humidity;BMP_temperature;BMP_pressure;BME280_temperature;BME280_humidity;BME280_pressure;Samples;Min_cycle;Max_cycle;Signal;HPM_P1;HPM_P2
2022/12/04 00:01:04;;;;;;;5.28;4.55;;;20.70;70.70;;;;;;4999408;28;20270;-81
2022/12/04 00:03:31;;;;;;;4.78;4.38;;;20.70;70.70;;;;;;5000023;28;20235;-80
2022/12/04 00:06:03;;;;;;;5.30;4.90;;;20.80;70.70;;;;;;4996872;28;20207;-80
2022/12/04 00:08:30;;;;;;;4.60;4.20;;;20.80;70.60;;;;;;4995775;28;20193;-80
2022/12/04 00:10:57;;;;;;;4.57;4.18;;;20.80;70.60;;;;;;4997480;28;20211;-82
2022/12/04 00:13:24;;;;;;;5.93;4.65;;;20.70;70.50;;;;;;4990727;28;20193;-80
2022/12/04 00:15:52;;;;;;;5.78;5.07;;;20.70;70.50;;;;;;4994459;28;20224;-80
2022/12/04 00:18:19;;;;;;;5.65;4.28;;;20.70;70.60;;;;;;4994258;28;20655;-80
2022/12/04 00:20:47;;;;;;;5.32;4.68;;;20.80;70.60;;;;;;4996359;28;20201;-79
2022/12/04 00:23:14;;;;;;;6.43;5.15;;;20.70;70.50;;;;;;5006301;28;20498;-80
2022/12/04 00:25:41;;;;;;;6.40;5.80;;;20.60;71.00;;;;;;4986814;28;20205;-80
2022/12/04 00:28:08;;;;;;;8.10;6.20;;;20.50;70.50;;;;;;5000133;28;20667;-81
2022/12/04 00:30:40;;;;;;;6.05;5.28;;;20.50;70.70;;;;;;4993461;28;20699;-82
2022/12/04 00:33:08;;;;;;;5.78;5.18;;;20.50;71.00;;;;;;4987770;28;20192;-80
2022/12/04 00:35:34;;;;;;;6.35;5.75;;;20.50;71.20;;;;;;4989035;28;20204;-80
2022/12/04 00:38:01;;;;;;;8.10;6.50;;;20.50;71.50;;;;;;4992993;28;20201;-80
2022/12/04 00:40:28;;;;;;;6.57;5.93;;;20.60;71.30;;;;;;4992493;28;20676;-80
2022/12/04 00:42:55;;;;;;;6.03;5.43;;;20.60;71.10;;;;;;4999789;28;20216;-79
2022/12/04 00:45:22;;;;;;;5.65;5.07;;;20.70;71.10;;;;;;5000273;28;20192;-80
2022/12/04 00:47:48;;;;;;;7.38;5.65;;;20.60;71.00;;;;;;5012821;28;20211;-79
2022/12/04 00:50:17;;;;;;;7.28;5.57;;;20.70;71.00;;;;;;4994208;28;20201;-80
2022/12/04 00:52:43;;;;;;;6.95;5.50;;;20.70;71.00;;;;;;4998176;28;20584;-80
2022/12/04 00:55:10;;;;;;;6.15;5.55;;;20.70;71.00;;;;;;4995046;28;20203;-80
2022/12/04 00:57:37;;;;;;;6.00;5.40;;;20.70;71.00;;;;;;4989630;28;20648;-80
2022/12/04 01:00:04;;;;;;;5.90;5.35;;;20.60;71.00;;;;;;5001053;28;20223;-78
2022/12/04 01:02:31;;;;;;;6.30;5.55;;;20.70;71.00;;;;;;5001178;28;20214;-77
2022/12/04 01:05:00;;;;;;;5.20;4.70;;;20.70;70.90;;;;;;5002991;28;20563;-77
2022/12/04 01:07:29;;;;;;;5.50;4.97;;;20.70;70.70;;;;;;4996050;28;20199;-77
2022/12/04 01:09:56;;;;;;;5.45;4.95;;;20.70;70.70;;;;;;4983423;28;20671;-76
2022/12/04 01:12:23;;;;;;;5.35;4.85;;;20.70;70.70;;;;;;4998562;28;20620;-77
2022/12/04 01:14:50;;;;;;;5.75;5.15;;;20.70;70.80;;;;;;4994458;28;20656;-78
2022/12/04 01:24:03;;;;;;;5.07;4.57;;;20.70;70.70;;;;;;4981371;28;20211;-77
2022/12/04 01:26:30;;;;;;;5.05;4.60;;;20.70;70.70;;;;;;4989682;28;20193;-77
2022/12/04 01:28:57;;;;;;;5.45;4.95;;;20.70;70.90;;;;;;4985625;28;20200;-77
2022/12/04 01:31:24;;;;;;;6.60;4.55;;;20.70;70.90;;;;;;5000221;28;20201;-76
2022/12/04 01:33:51;;;;;;;4.90;4.50;;;20.80;70.80;;;;;;4992817;28;20201;-76
2022/12/04 01:36:20;;;;;;;5.32;4.78;;;20.70;70.70;;;;;;4990541;28;20194;-77
2022/12/04 01:38:47;;;;;;;4.60;4.20;;;20.70;70.70;;;;;;4985178;28;20208;-76
2022/12/04 01:41:18;;;;;;;5.63;5.13;;;20.80;70.80;;;;;;5000376;28;20204;-77
2022/12/04 01:43:45;;;;;;;5.22;4.72;;;20.80;70.70;;;;;;5012915;28;20276;-77
2022/12/04 01:46:12;;;;;;;4.75;4.35;;;20.70;70.70;;;;;;5003390;28;20197;-76
2022/12/04 01:48:43;;;;;;;5.55;4.65;;;20.70;70.70;;;;;;5009615;28;20200;-77
2022/12/04 01:51:17;;;;;;;4.85;4.40;;;20.80;70.80;;;;;;4996181;28;20189;-76
2022/12/04 01:53:46;;;;;;;5.53;5.03;;;20.80;70.70;;;;;;4988463;28;20193;-76
2022/12/04 01:56:16;;;;;;;4.47;4.05;;;20.80;70.80;;;;;;4997969;28;20205;-75
2022/12/04 01:58:48;;;;;;;5.07;4.57;;;20.70;70.70;;;;;;4994328;28;20247;-77
2022/12/04 02:01:14;;;;;;;5.38;4.88;;;20.80;70.80;;;;;;4991035;28;20204;-76
2022/12/04 02:03:44;;;;;;;4.63;4.22;;;20.80;70.80;;;;;;4987692;28;20252;-77
2022/12/04 02:06:13;;;;;;;5.17;4.67;;;20.80;70.70;;;;;;4993468;28;20615;-76
2022/12/04 02:08:40;;;;;;;4.43;4.03;;;20.80;70.80;;;;;;4995270;28;20467;-77
2022/12/04 02:11:15;;;;;;;5.05;4.55;;;20.80;70.80;;;;;;4993448;28;20197;-76
2022/12/04 02:13:53;;;;;;;5.20;4.75;;;20.80;70.80;;;;;;4993760;28;20201;-76
2022/12/04 02:16:24;;;;;;;4.55;4.15;;;20.80;70.70;;;;;;5007086;28;20231;-76
2022/12/04 02:18:57;;;;;;;5.15;4.65;;;20.80;70.80;;;;;;5005225;28;20644;-76
2022/12/04 02:21:32;;;;;;;4.85;4.45;;;20.70;70.70;;;;;;4987125;28;20198;-77
2022/12/04 02:24:23;;;;;;;4.50;4.10;;;20.70;70.70;;;;;;4990681;28;20756;-76
2022/12/04 02:26:55;;;;;;;3.90;3.60;;;20.70;70.70;;;;;;4991418;28;20190;-77
2022/12/04 02:29:34;;;;;;;4.30;3.90;;;20.80;70.70;;;;;;4995739;28;20611;-76
2022/12/04 02:32:12;;;;;;;5.10;4.60;;;20.80;70.70;;;;;;4999846;28;20663;-77
2022/12/04 02:34:44;;;;;;;5.15;4.72;;;20.70;70.70;;;;;;5001243;28;20201;-77
2022/12/04 02:37:16;;;;;;;4.63;4.20;;;20.70;70.70;;;;;;4997961;28;20607;-76
2022/12/04 02:39:51;;;;;;;4.75;4.35;;;20.80;70.80;;;;;;4985751;28;20560;-76
2022/12/04 02:42:36;;;;;;;5.10;4.60;;;20.80;70.70;;;;;;5004010;28;20703;-76
2022/12/04 02:45:09;;;;;;;4.60;4.20;;;20.80;70.70;;;;;;5005790;28;20200;-76
2022/12/04 02:47:39;;;;;;;4.32;3.92;;;20.80;70.70;;;;;;5002555;28;20458;-77
2022/12/04 02:50:10;;;;;;;5.00;4.50;;;20.80;70.60;;;;;;5002738;28;20204;-77
2022/12/04 02:52:40;;;;;;;5.53;4.55;;;20.80;70.70;;;;;;4996970;28;20197;-76
2022/12/04 02:55:13;;;;;;;4.65;3.75;;;20.70;71.50;;;;;;4990162;28;20204;-76
2022/12/04 02:57:45;;;;;;;4.90;4.40;;;20.80;70.70;;;;;;4994479;28;20280;-75
2022/12/04 03:00:14;;;;;;;4.40;4.00;;;20.80;70.70;;;;;;4996846;28;20197;-75
2022/12/04 03:02:46;;;;;;;4.70;4.20;;;20.80;70.60;;;;;;4997604;28;20762;-76
2022/12/04 03:05:16;;;;;;;4.80;4.20;;;20.80;70.60;;;;;;4994318;28;20201;-75
2022/12/04 03:07:46;;;;;;;4.00;3.70;;;20.80;70.60;;;;;;4994100;28;20205;-76
2022/12/04 03:10:17;;;;;;;4.70;4.22;;;20.80;70.60;;;;;;5001008;28;20459;-77
2022/12/04 03:12:48;;;;;;;4.60;4.20;;;20.70;70.70;;;;;;5003521;28;20220;-75
2022/12/04 03:15:20;;;;;;;4.93;4.47;;;20.80;70.80;;;;;;4994069;28;20455;-77
2022/12/04 03:17:52;;;;;;;4.88;4.38;;;20.80;71.30;;;;;;4995173;28;20656;-76
2022/12/04 03:20:21;;;;;;;3.67;3.38;;;20.80;70.50;;;;;;4987127;28;20553;-77
2022/12/04 03:22:54;;;;;;;4.17;3.80;;;20.80;70.50;;;;;;5008860;28;20251;-76
2022/12/04 03:25:25;;;;;;;4.13;3.73;;;20.80;70.50;;;;;;4995728;28;20959;-77
2022/12/04 03:27:57;;;;;;;4.10;3.70;;;20.80;70.50;;;;;;4995910;28;20429;-77
2022/12/04 03:30:25;;;;;;;4.25;3.85;;;20.80;70.40;;;;;;4997222;28;20205;-79
2022/12/04 03:32:58;;;;;;;4.68;3.70;;;20.80;71.20;;;;;;4984663;28;20645;-78
2022/12/04 03:35:30;;;;;;;4.13;3.83;;;20.80;70.50;;;;;;4998053;28;20193;-76
2022/12/04 03:38:03;;;;;;;4.60;4.13;;;20.80;70.50;;;;;;4987474;28;20197;-77
2022/12/04 03:40:35;;;;;;;4.10;3.70;;;20.80;70.60;;;;;;4996733;28;20581;-77
2022/12/04 03:43:05;;;;;;;4.57;4.18;;;20.80;70.50;;;;;;5001651;28;20263;-77
2022/12/04 03:45:41;;;;;;;3.65;3.35;;;20.80;70.40;;;;;;5002181;28;20204;-77
2022/12/04 03:48:13;;;;;;;4.30;3.90;;;20.70;70.50;;;;;;4995428;28;20204;-77
2022/12/04 03:50:45;;;;;;;4.25;3.85;;;20.80;70.60;;;;;;5005481;28;20204;-77
2022/12/04 03:53:18;;;;;;;3.50;3.13;;;20.80;70.40;;;;;;4994653;28;20201;-80
2022/12/04 03:55:58;;;;;;;4.90;3.45;;;20.80;70.30;;;;;;4995303;28;20197;-78
2022/12/04 03:58:30;;;;;;;4.43;3.75;;;20.80;70.40;;;;;;4990374;28;20193;-79
2022/12/04 04:00:59;;;;;;;4.43;3.70;;;20.70;70.40;;;;;;4998182;28;20204;-79
2022/12/04 04:03:28;;;;;;;4.47;4.00;;;20.70;70.40;;;;;;4990355;28;20217;-79
2022/12/04 04:06:01;;;;;;;4.25;3.90;;;20.80;70.50;;;;;;4995877;28;20247;-78
2022/12/04 04:08:33;;;;;;;3.83;3.53;;;20.80;70.30;;;;;;4996568;28;20194;-79
2022/12/04 04:11:06;;;;;;;4.32;3.95;;;20.80;70.50;;;;;;4990904;28;20228;-79
2022/12/04 04:24:55;;;;;;;4.22;3.92;;;21.00;70.10;;;;;;4992675;28;20227;-78
2022/12/04 04:27:21;;;;;;;4.22;3.80;;;21.00;70.10;;;;;;5000447;28;20201;-79
2022/12/04 04:29:48;;;;;;;3.88;3.53;;;21.00;70.00;;;;;;4993911;28;20497;-79
2022/12/04 04:32:23;;;;;;;3.97;3.67;;;21.00;70.10;;;;;;4990017;28;20199;-79
2022/12/04 04:34:55;;;;;;;3.60;3.30;;;20.90;70.00;;;;;;4999009;28;20207;-79
2022/12/04 04:37:30;;;;;;;3.60;3.30;;;21.00;70.20;;;;;;4992433;28;20448;-79
2022/12/04 04:40:04;;;;;;;4.80;3.85;;;21.00;70.20;;;;;;4992624;28;20200;-79
2022/12/04 04:42:35;;;;;;;3.72;3.35;;;21.00;70.10;;;;;;4998685;28;20227;-78
2022/12/04 04:45:06;;;;;;;5.00;4.60;;;21.00;70.10;;;;;;5002847;28;20453;-79
2022/12/04 04:47:38;;;;;;;3.80;3.50;;;21.00;70.20;;;;;;5001744;28;20212;-80
2022/12/04 04:50:10;;;;;;;3.53;3.23;;;20.90;70.20;;;;;;4997932;28;20859;-80
2022/12/04 04:52:38;;;;;;;3.70;3.40;;;20.90;70.30;;;;;;4997813;28;20459;-79
2022/12/04 04:55:06;;;;;;;5.40;3.60;;;20.90;70.30;;;;;;4996987;28;20205;-79
2022/12/04 04:57:35;;;;;;;4.25;3.60;;;20.90;70.30;;;;;;4993195;28;20214;-79
2022/12/04 05:00:04;;;;;;;3.65;3.35;;;20.90;70.30;;;;;;4993366;28;20197;-79
2022/12/04 05:02:32;;;;;;;4.53;4.13;;;20.90;70.30;;;;;;4995721;28;20231;-79
2022/12/04 05:05:00;;;;;;;4.38;3.97;;;20.90;70.40;;;;;;4992387;28;20251;-80
2022/12/04 05:07:26;;;;;;;3.85;3.55;;;20.80;70.40;;;;;;4993738;28;20240;-79
2022/12/04 05:09:53;;;;;;;4.10;3.73;;;20.80;70.40;;;;;;4991603;28;20208;-79
2022/12/04 05:12:20;;;;;;;3.70;3.40;;;20.80;70.40;;;;;;5000015;28;20456;-78
2022/12/04 05:14:47;;;;;;;4.18;3.85;;;20.80;70.40;;;;;;5000908;28;20464;-78
2022/12/04 05:17:14;;;;;;;4.53;3.80;;;20.80;70.30;;;;;;4991901;28;20217;-79
2022/12/04 05:19:53;;;;;;;4.00;3.70;;;20.80;70.40;;;;;;4993119;28;20212;-79
2022/12/04 05:22:23;;;;;;;3.30;3.00;;;20.80;70.40;;;;;;4998640;28;20200;-78
2022/12/04 05:24:50;;;;;;;3.75;3.42;;;20.80;70.40;;;;;;4985220;28;20268;-78
2022/12/04 05:27:17;;;;;;;3.60;3.30;;;20.80;70.40;;;;;;4989323;28;20707;-79
2022/12/04 05:29:43;;;;;;;3.88;3.55;;;20.80;70.30;;;;;;4993045;28;20204;-79
2022/12/04 05:32:10;;;;;;;3.95;3.53;;;20.80;70.40;;;;;;4990375;28;20197;-79
2022/12/04 05:34:37;;;;;;;3.88;3.47;;;20.80;70.40;;;;;;4990974;28;20256;-79
2022/12/04 05:37:04;;;;;;;3.40;3.10;;;20.80;70.40;;;;;;4988147;28;20193;-79
2022/12/04 05:42:54;;;;;;;4.07;3.67;;;20.80;70.40;;;;;;4983337;28;20584;-79
2022/12/04 05:45:21;;;;;;;3.35;3.05;;;20.80;70.40;;;;;;4994876;28;20200;-79
2022/12/04 05:47:47;;;;;;;3.70;3.40;;;20.80;70.30;;;;;;5000178;28;20667;-80
2022/12/04 05:50:14;;;;;;;3.65;3.35;;;20.80;70.30;;;;;;5017266;28;20203;-79
2022/12/04 05:52:41;;;;;;;2.90;2.70;;;20.80;70.30;;;;;;5009723;28;20189;-79
2022/12/04 05:55:08;;;;;;;3.20;2.80;;;20.80;70.20;;;;;;4999502;28;20193;-79
2022/12/04 05:57:35;;;;;;;3.90;3.50;;;20.80;70.30;;;;;;5001933;28;20600;-79
2022/12/04 06:00:04;;;;;;;3.22;3.03;;;20.80;70.30;;;;;;4997263;28;20250;-79
2022/12/04 06:02:33;;;;;;;3.60;3.30;;;20.80;70.30;;;;;;5000064;28;20656;-79
2022/12/04 06:05:00;;;;;;;5.88;3.40;;;20.80;70.30;;;;;;4995047;28;20645;-79
2022/12/04 06:07:26;;;;;;;3.95;3.65;;;20.80;70.30;;;;;;4996741;28;20193;-78
2022/12/04 06:09:55;;;;;;;2.70;2.50;;;20.80;70.30;;;;;;4988485;28;20536;-78
2022/12/04 06:12:21;;;;;;;3.47;3.17;;;20.80;70.40;;;;;;5003441;28;20649;-79
2022/12/04 06:14:48;;;;;;;4.25;3.95;;;20.80;70.30;;;;;;4997588;28;20460;-79
2022/12/04 06:17:16;;;;;;;3.80;3.50;;;20.80;70.30;;;;;;5005282;28;20993;-79
2022/12/04 06:19:43;;;;;;;3.90;3.60;;;20.80;70.30;;;;;;5002955;28;20201;-79
2022/12/04 06:22:09;;;;;;;3.85;3.55;;;20.80;70.30;;;;;;4996123;28;20204;-80
2022/12/04 06:24:36;;;;;;;3.50;3.20;;;20.80;70.30;;;;;;4985466;28;20221;-78
2022/12/04 06:27:03;;;;;;;3.72;3.42;;;20.80;70.30;;;;;;4997018;28;20728;-79
2022/12/04 06:29:30;;;;;;;3.53;3.20;;;20.80;70.30;;;;;;4991106;28;20193;-78
2022/12/04 06:31:57;;;;;;;3.58;3.20;;;20.80;70.30;;;;;;4996884;28;20448;-78
2022/12/04 06:34:25;;;;;;;3.80;3.40;;;20.80;70.30;;;;;;5003607;28;20204;-79
2022/12/04 06:36:51;;;;;;;3.00;2.80;;;20.80;70.30;;;;;;4995759;28;20204;-79
2022/12/04 06:39:18;;;;;;;3.33;3.03;;;20.80;70.40;;;;;;4993284;28;20627;-79
2022/12/04 06:41:46;;;;;;;3.65;3.33;;;20.70;70.30;;;;;;4992131;28;20656;-79
2022/12/04 06:44:14;;;;;;;3.40;3.10;;;20.70;70.30;;;;;;4993907;28;20230;-79
2022/12/04 06:46:40;;;;;;;3.58;3.28;;;20.70;70.00;;;;;;5003483;28;20205;-79
2022/12/04 06:49:07;;;;;;;3.85;3.28;;;20.70;70.00;;;;;;5002926;28;20251;-79
2022/12/04 06:51:38;;;;;;;3.63;3.30;;;20.70;69.90;;;;;;4997119;28;20671;-79
2022/12/04 06:54:05;;;;;;;3.70;3.40;;;20.60;70.10;;;;;;4987052;28;20281;-79
2022/12/04 06:59:54;;;;;;;3.75;3.45;;;20.60;70.60;;;;;;4986361;28;20184;-78
2022/12/04 07:02:21;;;;;;;4.05;3.65;;;20.60;70.60;;;;;;4993181;28;20197;-79
2022/12/04 07:04:48;;;;;;;3.50;2.72;;;20.60;70.60;;;;;;4992915;28;20646;-79
2022/12/04 07:07:16;;;;;;;4.38;3.30;;;20.70;70.60;;;;;;5004633;28;20197;-78
2022/12/04 07:09:44;;;;;;;3.20;2.90;;;20.70;70.50;;;;;;4989605;28;20651;-79
2022/12/04 07:12:10;;;;;;;3.10;2.90;;;20.70;70.40;;;;;;4994649;28;20286;-79
2022/12/04 07:14:37;;;;;;;3.40;3.10;;;20.80;70.30;;;;;;4993130;28;20701;-79
2022/12/04 07:17:04;;;;;;;2.55;2.35;;;20.80;70.10;;;;;;4994702;28;20224;-79
2022/12/04 07:19:31;;;;;;;3.30;2.80;;;20.80;70.10;;;;;;4988104;28;20197;-78
2022/12/04 07:21:57;;;;;;;3.20;2.90;;;20.80;70.10;;;;;;4998551;28;20199;-79
2022/12/04 07:24:25;;;;;;;3.05;2.75;;;20.80;70.10;;;;;;5011282;28;20680;-79
2022/12/04 07:26:52;;;;;;;3.40;3.13;;;20.80;70.10;;;;;;4998110;28;20224;-78
2022/12/04 07:29:18;;;;;;;3.42;3.13;;;20.80;70.10;;;;;;4984944;28;20208;-79
2022/12/04 07:31:45;;;;;;;3.05;2.80;;;20.70;69.90;;;;;;4997434;28;20340;-78
2022/12/04 07:34:12;;;;;;;3.33;3.03;;;20.70;70.10;;;;;;5007298;28;20192;-78
2022/12/04 07:36:39;;;;;;;3.38;3.08;;;20.70;69.90;;;;;;4997990;28;20683;-78
2022/12/04 07:39:07;;;;;;;2.80;2.60;;;20.70;70.00;;;;;;4987427;28;20251;-79
2022/12/04 07:41:35;;;;;;;3.20;2.95;;;20.70;70.10;;;;;;4994114;28;20197;-79
2022/12/04 07:44:01;;;;;;;3.00;2.70;;;20.70;70.30;;;;;;4999855;28;20597;-79
2022/12/04 07:46:29;;;;;;;3.50;3.20;;;20.70;70.10;;;;;;4992563;28;20197;-79
2022/12/04 07:48:57;;;;;;;3.08;2.83;;;20.70;70.20;;;;;;5003125;28;20201;-80
2022/12/04 07:51:26;;;;;;;3.63;3.10;;;20.70;70.20;;;;;;4992347;28;20206;-79
2022/12/04 07:53:54;;;;;;;3.58;3.30;;;20.70;70.10;;;;;;4987002;28;20213;-79
2022/12/04 07:56:21;;;;;;;3.03;2.72;;;20.70;70.10;;;;;;4992762;28;20240;-80
2022/12/04 07:58:49;;;;;;;2.80;2.60;;;20.80;70.20;;;;;;4996435;28;20201;-80
2022/12/04 08:01:18;;;;;;;3.40;3.10;;;20.80;70.20;;;;;;4992839;28;20196;-79
2022/12/04 08:03:48;;;;;;;3.30;3.00;;;20.80;70.10;;;;;;5009238;28;20216;-79
2022/12/04 08:06:15;;;;;;;3.05;2.85;;;20.80;70.10;;;;;;5007551;28;20641;-78
2022/12/04 08:08:42;;;;;;;2.78;2.58;;;20.80;70.10;;;;;;4988085;28;20205;-79
2022/12/04 08:11:11;;;;;;;3.60;3.30;;;20.90;70.10;;;;;;4995853;28;20219;-79
2022/12/04 08:13:38;;;;;;;4.20;3.90;;;20.90;70.00;;;;;;4995810;28;20791;-79
2022/12/04 08:16:08;;;;;;;3.25;2.95;;;20.90;70.00;;;;;;4993086;28;20548;-79
2022/12/04 08:18:35;;;;;;;3.20;2.90;;;20.90;70.00;;;;;;5000111;28;21867;-80
2022/12/04 08:21:06;;;;;;;3.55;3.25;;;20.90;70.00;;;;;;5001970;28;20652;-81
2022/12/04 08:23:32;;;;;;;3.08;2.65;;;20.80;71.00;;;;;;4988074;28;20228;-81
2022/12/04 08:26:00;;;;;;;2.58;2.38;;;20.80;70.60;;;;;;4996649;28;20193;-80
2022/12/04 08:28:27;;;;;;;2.78;2.58;;;20.80;70.40;;;;;;5008201;28;20184;-81
2022/12/04 08:30:53;;;;;;;3.05;2.75;;;20.90;70.30;;;;;;4995991;28;20203;-81
2022/12/04 08:33:21;;;;;;;3.05;2.75;;;20.80;70.60;;;;;;5003357;28;20192;-80
2022/12/04 08:35:48;;;;;;;2.67;2.47;;;20.80;70.80;;;;;;4991058;28;20197;-79
2022/12/04 08:38:15;;;;;;;3.00;2.80;;;20.90;70.50;;;;;;4990563;28;20589;-79
2022/12/04 08:40:41;;;;;;;3.60;2.80;;;20.80;70.40;;;;;;4989023;28;20201;-79
2022/12/04 08:43:08;;;;;;;3.65;3.35;;;20.90;70.40;;;;;;4994516;28;20197;-79
2022/12/04 08:45:35;;;;;;;4.75;2.80;;;20.90;70.40;;;;;;4990960;28;20624;-79
2022/12/04 08:48:02;;;;;;;2.75;2.55;;;20.90;70.40;;;;;;5000512;28;20564;-79
2022/12/04 08:50:30;;;;;;;3.05;2.80;;;20.80;70.40;;;;;;5000838;28;20589;-79
2022/12/04 08:52:57;;;;;;;2.75;2.55;;;20.80;70.40;;;;;;4993689;28;20212;-79
2022/12/04 08:55:24;;;;;;;2.85;2.65;;;20.80;70.30;;;;;;4990387;28;20193;-79
2022/12/04 08:57:51;;;;;;;3.00;2.72;;;20.80;70.30;;;;;;4993125;28;20201;-80
2022/12/04 09:00:19;;;;;;;2.43;2.23;;;20.80;70.30;;;;;;4993053;28;20282;-79
2022/12/04 09:02:48;;;;;;;3.35;2.85;;;20.80;70.40;;;;;;4989276;28;20984;-80
2022/12/04 09:05:15;;;;;;;2.65;2.45;;;20.80;70.40;;;;;;5003868;28;20216;-80
2022/12/04 09:07:43;;;;;;;2.40;2.20;;;20.80;70.30;;;;;;5000557;28;20657;-79
2022/12/04 09:10:11;;;;;;;2.88;2.67;;;20.80;70.40;;;;;;4989244;28;20217;-79
2022/12/04 09:12:38;;;;;;;2.45;2.25;;;20.80;70.50;;;;;;4987735;28;20260;-82
2022/12/04 09:15:06;;;;;;;2.83;2.63;;;20.80;70.40;;;;;;4995308;28;20211;-80
2022/12/04 09:17:34;;;;;;;2.60;2.40;;;20.70;71.00;;;;;;5011313;28;20675;-80
2022/12/04 09:23:24;;;;;;;5.60;2.88;;;20.70;70.70;;;;;;4975059;28;20606;-79
2022/12/04 09:25:51;;;;;;;3.10;2.85;;;20.60;71.50;;;;;;4993938;28;20192;-86
2022/12/04 09:28:18;;;;;;;2.55;2.35;;;20.50;70.70;;;;;;5003956;28;20287;-79
2022/12/04 09:30:45;;;;;;;2.58;2.38;;;20.50;70.80;;;;;;4982780;28;20201;-80
2022/12/04 09:33:12;;;;;;;2.47;2.28;;;20.40;70.80;;;;;;4985358;28;20197;-79
2022/12/04 09:35:39;;;;;;;3.40;3.10;;;20.40;70.80;;;;;;4989210;28;20195;-81
2022/12/04 09:38:05;;;;;;;3.28;2.97;;;20.40;70.80;;;;;;4988514;28;20699;-78
2022/12/04 09:40:43;;;;;;;3.30;2.70;;;20.40;71.80;;;;;;4982963;28;20205;-80
2022/12/04 09:43:24;;;;;;;3.70;3.40;;;20.50;70.80;;;;;;4992766;28;20197;-80
2022/12/04 09:45:54;;;;;;;3.70;3.13;;;20.60;70.60;;;;;;4990216;28;20659;-80
2022/12/04 09:48:22;;;;;;;3.30;3.00;;;20.70;70.40;;;;;;4993844;28;20203;-80
2022/12/04 09:50:50;;;;;;;3.40;3.10;;;20.70;70.20;;;;;;5000818;28;20205;-80
2022/12/04 09:53:21;;;;;;;4.05;3.65;;;20.80;69.90;;;;;;4989941;28;20212;-80
2022/12/04 09:55:54;;;;;;;4.20;3.35;;;20.90;69.60;;;;;;4992766;28;20197;-80
2022/12/04 09:58:25;;;;;;;3.15;2.85;;;20.90;69.40;;;;;;4984933;28;20205;-81
2022/12/04 10:00:54;;;;;;;3.17;2.70;;;21.00;69.40;;;;;;4995445;28;20212;-83
2022/12/04 10:03:24;;;;;;;2.22;2.05;;;21.00;69.30;;;;;;4994443;28;20667;-79
2022/12/04 10:06:00;;;;;;;3.00;2.70;;;21.00;69.20;;;;;;4988731;28;20221;-77
2022/12/04 10:08:29;;;;;;;3.40;3.10;;;21.00;69.50;;;;;;4985859;28;20201;-77
2022/12/04 10:11:05;;;;;;;4.95;3.90;;;21.00;69.80;;;;;;4997600;28;20547;-81
2022/12/04 10:13:53;;;;;;;5.05;4.10;;;20.90;69.60;;;;;;4986617;28;20664;-79
2022/12/04 10:16:29;;;;;;;7.10;3.88;;;20.90;69.70;;;;;;4989906;28;20233;-80
2022/12/04 10:19:03;;;;;;;7.07;4.60;;;20.90;69.60;;;;;;4988469;28;20232;-79
2022/12/04 10:21:51;;;;;;;6.73;4.90;;;20.90;69.70;;;;;;4989765;28;20460;-79
2022/12/04 10:24:34;;;;;;;11.30;6.07;;;20.90;69.60;;;;;;4995628;28;20480;-80
2022/12/04 10:27:09;;;;;;;7.32;5.75;;;20.90;69.60;;;;;;4983448;28;20936;-79
2022/12/04 10:29:37;;;;;;;5.70;4.53;;;21.00;69.70;;;;;;4991459;28;20652;-79
2022/12/04 10:32:14;;;;;;;10.20;4.43;;;20.90;69.50;;;;;;4987279;28;20607;-79
2022/12/04 10:34:42;;;;;;;6.20;4.87;;;20.90;69.50;;;;;;4988880;28;20207;-78
2022/12/04 10:37:13;;;;;;;7.72;5.40;;;20.90;69.50;;;;;;4993929;28;20498;-77
2022/12/04 10:39:44;;;;;;;9.23;6.15;;;20.90;69.40;;;;;;4987205;28;20211;-79
2022/12/04 10:42:20;;;;;;;5.73;4.87;;;20.90;69.50;;;;;;5001289;28;20209;-81
2022/12/04 10:44:47;;;;;;;7.30;5.23;;;20.90;69.50;;;;;;5001996;28;20839;-78
2022/12/04 10:47:14;;;;;;;7.50;5.03;;;20.90;69.50;;;;;;4994649;28;20470;-79
2022/12/04 10:49:41;;;;;;;5.80;4.45;;;20.80;69.60;;;;;;4994819;28;21206;-80
2022/12/04 10:52:13;;;;;;;6.32;5.13;;;20.80;69.70;;;;;;4994743;28;20201;-81
2022/12/04 10:54:47;;;;;;;8.07;5.07;;;20.80;70.40;;;;;;4993569;28;20221;-81
2022/12/04 10:57:16;;;;;;;8.13;5.28;;;20.80;69.60;;;;;;5005908;28;20459;-77
2022/12/04 10:59:51;;;;;;;6.13;4.50;;;20.80;69.60;;;;;;5007935;28;20223;-80
2022/12/04 11:02:22;;;;;;;5.78;4.63;;;20.90;69.70;;;;;;4994582;28;20490;-81
2022/12/04 11:04:55;;;;;;;8.57;5.50;;;20.80;69.60;;;;;;4995974;28;20209;-76
2022/12/04 11:07:24;;;;;;;6.47;4.53;;;20.90;69.70;;;;;;4993244;28;20201;-75
2022/12/04 11:09:56;;;;;;;5.78;5.05;;;20.80;69.80;;;;;;4992333;28;20451;-81
2022/12/04 11:12:25;;;;;;;9.83;5.43;;;20.80;69.80;;;;;;5005495;28;20189;-82
2022/12/04 11:15:03;;;;;;;6.70;4.80;;;20.90;69.80;;;;;;5003347;28;20467;-79
2022/12/04 11:17:29;;;;;;;5.60;4.32;;;20.90;69.70;;;;;;5013324;28;20450;-80
2022/12/04 11:20:00;;;;;;;5.82;4.47;;;20.90;69.80;;;;;;4990048;28;20563;-79
2022/12/04 11:22:27;;;;;;;6.22;5.63;;;20.90;69.60;;;;;;4990090;28;20668;-81
2022/12/04 11:24:59;;;;;;;6.43;4.40;;;20.90;69.60;;;;;;4996311;28;20220;-80
2022/12/04 11:27:31;;;;;;;7.97;5.20;;;20.90;69.60;;;;;;5010913;28;20449;-79
2022/12/04 11:30:00;;;;;;;4.70;4.17;;;21.00;69.80;;;;;;4995838;28;20471;-80
2022/12/04 11:32:30;;;;;;;6.85;5.00;;;20.90;69.80;;;;;;4992211;28;20468;-80
2022/12/04 11:35:01;;;;;;;7.70;5.07;;;20.90;69.90;;;;;;4995145;28;20563;-80
2022/12/04 11:37:32;;;;;;;5.55;4.30;;;20.80;69.90;;;;;;4995768;28;20193;-79
2022/12/04 11:39:59;;;;;;;9.23;4.85;;;20.80;70.10;;;;;;4994610;28;20207;-77
2022/12/04 11:42:32;;;;;;;9.05;5.10;;;20.80;70.30;;;;;;4983492;28;20208;-82
2022/12/04 11:45:03;;;;;;;8.02;5.05;;;20.80;70.50;;;;;;4989443;28;20585;-77
2022/12/04 11:47:31;;;;;;;5.43;4.45;;;20.80;70.70;;;;;;4992776;28;20198;-79
2022/12/04 11:50:02;;;;;;;8.33;4.90;;;20.80;70.80;;;;;;5000103;28;20328;-79
2022/12/04 11:52:42;;;;;;;6.30;5.10;;;20.80;70.80;;;;;;4994222;28;20820;-78
2022/12/04 11:55:17;;;;;;;6.57;5.18;;;20.80;71.00;;;;;;4995554;28;20456;-79
2022/12/04 11:57:53;;;;;;;7.70;4.88;;;20.70;70.90;;;;;;4995212;28;20561;-79
2022/12/04 12:00:22;;;;;;;5.05;4.18;;;20.70;70.90;;;;;;4994014;28;20236;-79
2022/12/04 12:03:14;;;;;;;4.82;4.35;;;20.70;70.70;;;;;;4991575;28;20184;-79
2022/12/04 12:06:02;;;;;;;7.75;5.18;;;20.70;70.60;;;;;;4994254;28;20217;-79
2022/12/04 12:08:40;;;;;;;9.50;5.00;;;20.70;70.50;;;;;;4992309;28;20223;-78
2022/12/04 12:11:16;;;;;;;5.07;4.60;;;20.70;70.70;;;;;;5010482;28;20203;-79
2022/12/04 12:13:50;;;;;;;7.95;5.50;;;20.70;70.60;;;;;;4993726;28;20657;-78
2022/12/04 12:16:24;;;;;;;6.80;4.60;;;20.70;70.60;;;;;;5007143;28;20219;-78
2022/12/04 12:19:13;;;;;;;5.60;4.80;;;20.70;70.60;;;;;;4995136;28;20193;-79
2022/12/04 12:21:49;;;;;;;6.60;4.55;;;20.70;70.50;;;;;;4995103;28;20280;-79
2022/12/04 12:24:25;;;;;;;5.22;4.38;;;20.60;70.30;;;;;;4990176;28;20200;-78
2022/12/04 12:27:04;;;;;;;4.28;3.83;;;20.60;70.40;;;;;;4997799;28;20566;-79
2022/12/04 12:29:47;;;;;;;8.45;5.72;;;20.60;70.30;;;;;;5004540;28;20200;-80
2022/12/04 12:32:26;;;;;;;5.43;4.30;;;20.60;70.40;;;;;;4990920;28;20647;-79
2022/12/04 12:34:54;;;;;;;11.32;4.53;;;20.60;70.50;;;;;;4991655;28;20201;-79
2022/12/04 12:37:26;;;;;;;6.15;4.80;;;20.60;70.50;;;;;;4994127;28;20205;-80
2022/12/04 12:39:59;;;;;;;4.60;4.05;;;20.60;70.40;;;;;;5001671;28;20196;-78
2022/12/04 12:42:32;;;;;;;3.63;3.13;;;20.70;70.50;;;;;;4989838;28;20197;-79
2022/12/04 12:45:06;;;;;;;5.55;4.30;;;20.60;70.30;;;;;;4993657;28;20221;-79
2022/12/04 12:47:41;;;;;;;5.90;4.18;;;20.70;70.40;;;;;;4993337;28;20633;-79
2022/12/04 12:50:16;;;;;;;4.90;4.40;;;20.70;70.40;;;;;;5001184;28;20195;-79
2022/12/04 12:52:47;;;;;;;4.50;4.00;;;20.70;70.40;;;;;;4997655;28;20257;-79
2022/12/04 12:55:20;;;;;;;4.68;3.58;;;20.70;70.30;;;;;;4992538;28;20197;-80
2022/12/04 12:57:52;;;;;;;4.57;4.18;;;20.70;70.40;;;;;;4996489;28;20203;-78
2022/12/04 13:00:24;;;;;;;4.35;3.95;;;20.70;70.40;;;;;;4992150;28;20208;-78
2022/12/04 13:02:58;;;;;;;4.70;4.25;;;20.70;70.30;;;;;;4991294;28;20193;-78
2022/12/04 13:05:29;;;;;;;4.93;3.95;;;20.70;70.40;;;;;;4992707;28;20259;-77
2022/12/04 13:08:04;;;;;;;6.68;4.38;;;20.70;70.40;;;;;;4992686;28;20703;-79
2022/12/04 13:10:36;;;;;;;4.63;3.97;;;20.60;70.30;;;;;;5003220;28;20291;-78
2022/12/04 13:13:06;;;;;;;11.15;4.20;;;20.70;70.30;;;;;;4994332;28;20692;-78
2022/12/04 13:15:41;;;;;;;9.57;4.07;;;20.70;70.30;;;;;;4990786;28;20225;-77
2022/12/04 13:18:15;;;;;;;5.03;4.40;;;20.70;70.10;;;;;;4999335;28;20199;-78
2022/12/04 13:20:51;;;;;;;4.00;3.53;;;20.70;70.10;;;;;;4986524;28;20452;-79
2022/12/04 13:23:45;;;;;;;5.07;4.60;;;20.70;71.10;;;;;;4990546;28;20208;-80
2022/12/04 13:26:33;;;;;;;6.35;4.00;;;20.90;70.90;;;;;;4999338;28;20238;-86
2022/12/04 13:29:09;;;;;;;7.78;4.88;;;20.90;70.90;;;;;;4988897;28;20548;-87